メインページ
METAR-TAF:

METAR-TAF

空港 :

ワシントン州, バージニア州, アメリカ合衆国

ワシントン・ダレス国際空港

緯度: 38-56-05N, 経度: 077-26-51W, 海抜: 95m

現時点の気象観測

当レポートは45分前の13:52(UTC)に作成
無風
気温 4°C
湿度 81%
気圧 1022 hPa
視程: 16.1km
高度4500ftの千切れ雲あり
高度25000ftの千切れ雲あり

METAR: KIAD 211352Z 00000KT 10SM BKN045 BKN250 04/01 A3019 RMK AO2 SLP225 T00390006

時間: 09:37 (14:37 UTC)

予報

当レポートは3時間16分前の11:21(UTC)に作成
予報は21日の 12時(UTC)から 22日の 18時(UTC)まで有効
変向風 3kt
視程: 10km
高度4000ftの千切れ雲あり
高度13000ftの千切れ雲あり
22日の 0100時(UTC)から
の風 5kt
視程: 10km
高度2500ftの千切れ雲あり
高度10000ftの千切れ雲あり
22日の 1700時(UTC)から
の風 8kt
視程: 10km
高度7000ftの千切れ雲あり
高度20000ftの千切れ雲あり

TAF: KIAD 211121Z 2112/2218 VRB03KT P6SM BKN040 BKN130 FM220100 18005KT P6SM BKN025 BKN100 FM221700 18008KT P6SM BKN070 BKN200

4,000以上の空港の気象観測と天気予報(METAR報とTAF報)

利用可能な観測所は地図上に黄色い丸と赤い丸で示す。

丸の上にカーソルを重ねると観測所名を参照できる。

次にクリックすると気象観測と天気予報を参照できる。

マップの切り替え:黒色「×」印の緑ボタンをクリックして拡大、「-」印の緑ボタンをクリックして縮小、緑色の三角印をクリックして隣りの地図に切り替え


METAR-TAF: